地図

経路データ

SID SEASON NUMBER BASIN SUBBASIN NAME ISO_TIME NATURE LAT LON WMO_WIND WMO_PRES WMO_AGENCY TRACK_TYPE DIST2LAND LANDFALL IFLAG USA_AGENCY USA_ATCF_ID USA_LAT USA_LON USA_RECORD USA_STATUS USA_WIND USA_PRES USA_SSHS USA_R34_NE USA_R34_SE USA_R34_SW USA_R34_NW USA_R50_NE USA_R50_SE USA_R50_SW USA_R50_NW USA_R64_NE USA_R64_SE USA_R64_SW USA_R64_NW USA_POCI USA_ROCI USA_RMW USA_EYE TOKYO_LAT TOKYO_LON TOKYO_GRADE TOKYO_WIND TOKYO_PRES TOKYO_R50_DIR TOKYO_R50_LONG TOKYO_R50_SHORT TOKYO_R30_DIR TOKYO_R30_LONG TOKYO_R30_SHORT TOKYO_LAND CMA_LAT CMA_LON CMA_CAT CMA_WIND CMA_PRES HKO_LAT HKO_LON HKO_CAT HKO_WIND HKO_PRES NEWDELHI_LAT NEWDELHI_LON NEWDELHI_GRADE NEWDELHI_WIND NEWDELHI_PRES NEWDELHI_CI NEWDELHI_DP NEWDELHI_POCI REUNION_LAT REUNION_LON REUNION_TYPE REUNION_WIND REUNION_PRES REUNION_TNUM REUNION_CI REUNION_RMW REUNION_R34_NE REUNION_R34_SE REUNION_R34_SW REUNION_R34_NW REUNION_R50_NE REUNION_R50_SE REUNION_R50_SW REUNION_R50_NW REUNION_R64_NE REUNION_R64_SE REUNION_R64_SW REUNION_R64_NW BOM_LAT BOM_LON BOM_TYPE BOM_WIND BOM_PRES BOM_TNUM BOM_CI BOM_RMW BOM_R34_NE BOM_R34_SE BOM_R34_SW BOM_R34_NW BOM_R50_NE BOM_R50_SE BOM_R50_SW BOM_R50_NW BOM_R64_NE BOM_R64_SE BOM_R64_SW BOM_R64_NW BOM_ROCI BOM_POCI BOM_EYE BOM_POS_METHOD BOM_PRES_METHOD NADI_LAT NADI_LON NADI_CAT NADI_WIND NADI_PRES WELLINGTON_LAT WELLINGTON_LON WELLINGTON_WIND WELLINGTON_PRES DS824_LAT DS824_LON DS824_STAGE DS824_WIND DS824_PRES TD9636_LAT TD9636_LON TD9636_STAGE TD9636_WIND TD9636_PRES TD9635_LAT TD9635_LON TD9635_WIND TD9635_PRES TD9635_ROCI NEUMANN_LAT NEUMANN_LON NEUMANN_CLASS NEUMANN_WIND NEUMANN_PRES MLC_LAT MLC_LON MLC_CLASS MLC_WIND MLC_PRES USA_GUST BOM_GUST BOM_GUST_PER REUNION_GUST REUNION_GUST_PER USA_SEAHGT USA_SEARAD_NE USA_SEARAD_SE USA_SEARAD_SW USA_SEARAD_NW STORM_SPEED STORM_DIR
1996282N11162 1996 94 WP MM ABEL:BETH 1996-10-07 12:00:00 NR 10.9000 162.200 main 1951 1926 O_____________ jtwc_wp WP321996 10.9000 162.200 15 -1 11 277
1996282N11162 1996 94 WP MM ABEL:BETH 1996-10-07 15:00:00 NR 10.9627 161.645 main 1923 1892 P_____________ WP321996 10.9627 161.645 15 -1 11 275
1996282N11162 1996 94 WP MM ABEL:BETH 1996-10-07 18:00:00 NR 11.0000 161.100 main 1892 1864 O_____________ jtwc_wp WP321996 11.0000 161.100 15 -1 11 272
1996282N11162 1996 94 WP MM ABEL:BETH 1996-10-07 21:00:00 NR 10.9998 160.565 main 1864 1829 P_____________ WP321996 10.9998 160.565 15 -1 11 270
1996282N11162 1996 94 WP MM ABEL:BETH 1996-10-08 00:00:00 NR 11.0000 160.000 main 1829 1796 O_____________ jtwc_wp WP321996 11.0000 160.000 15 -1 12 272
1996282N11162 1996 94 WP MM ABEL:BETH 1996-10-08 03:00:00 NR 11.0425 159.365 main 1796 1769 P_____________ WP321996 11.0425 159.365 15 -1 13 274
1996282N11162 1996 94 WP MM ABEL:BETH 1996-10-08 06:00:00 NR 11.1000 158.700 main 1769 1739 O_____________ jtwc_wp WP321996 11.1000 158.700 15 -1 13 274
1996282N11162 1996 94 WP MM ABEL:BETH 1996-10-08 09:00:00 NR 11.1349 158.042 main 1734 1715 P_____________ WP321996 11.1349 158.042 15 -1 13 274
1996282N11162 1996 94 WP MM ABEL:BETH 1996-10-08 12:00:00 NR 11.2000 157.400 main 1715 1699 O_____________ jtwc_wp WP321996 11.2000 157.400 15 -1 12 279
1996282N11162 1996 94 WP MM ABEL:BETH 1996-10-08 15:00:00 NR 11.3272 156.807 main 1699 1693 P_____________ WP321996 11.3272 156.807 15 -1 12 284
1996282N11162 1996 94 WP MM ABEL:BETH 1996-10-08 18:00:00 NR 11.5000 156.200 main 1695 1688 O_____________ jtwc_wp WP321996 11.5000 156.200 15 -1 13 286
1996282N11162 1996 94 WP MM ABEL:BETH 1996-10-08 21:00:00 NR 11.6925 155.507 main 1691 1685 P_____________ WP321996 11.6925 155.507 15 -1 14 286
1996282N11162 1996 94 WP MM ABEL:BETH 1996-10-09 00:00:00 NR 11.9000 154.800 main 1691 1686 O_____________ jtwc_wp WP321996 11.9000 154.800 15 -1 14 286
1996282N11162 1996 94 WP MM ABEL:BETH 1996-10-09 03:00:00 NR 12.0772 154.150 main 1695 1691 P_____________ WP321996 12.0772 154.150 15 -1 13 287
1996282N11162 1996 94 WP MM ABEL:BETH 1996-10-09 06:00:00 NR 12.3000 153.500 main 1705 1703 O_____________ jtwc_wp WP321996 12.3000 153.500 15 -1 14 293
1996282N11162 1996 94 WP MM ABEL:BETH 1996-10-09 09:00:00 NR 12.6349 152.800 main 1727 1727 P_____________ WP321996 12.6349 152.800 15 -1 15 297
1996282N11162 1996 94 WP MM ABEL:BETH 1996-10-09 12:00:00 NR 13.0000 152.100 main 1763 1763 O_____________ jtwc_wp WP321996 13.0000 152.100 15 -1 15 297
1996282N11162 1996 94 WP MM ABEL:BETH 1996-10-09 15:00:00 NR 13.3148 151.442 main 1781 1781 P_____________ WP321996 13.3148 151.442 15 -1 14 295
1996282N11162 1996 94 WP MM ABEL:BETH 1996-10-09 18:00:00 NR 13.6000 150.800 main 1798 1796 O_____________ jtwc_wp WP321996 13.6000 150.800 15 -1 14 293
1996282N11162 1996 94 WP MM ABEL:BETH 1996-10-09 21:00:00 NR 13.8650 150.120 main 1817 1813 P_____________ WP321996 13.8650 150.120 15 -1 14 292
1996282N11162 1996 94 WP MM ABEL:BETH 1996-10-10 00:00:00 NR 14.1000 149.500 main 1829 1828 O_____________ jtwc_wp WP321996 14.1000 149.500 15 -1 12 293
1996282N11162 1996 94 WP MM ABEL:BETH 1996-10-10 03:00:00 NR 14.3222 149.027 main 1845 1845 P_____________ WP321996 14.3222 149.027 15 -1 10 295
1996282N11162 1996 94 WP MM ABEL:BETH 1996-10-10 06:00:00 NR 14.5000 148.600 main 1864 1862 O_____________ jtwc_wp WP321996 14.5000 148.600 15 -1 9 288
1996282N11162 1996 94 WP MM ABEL:BETH 1996-10-10 09:00:00 NR 14.6225 148.100 main 1872 1872 P_____________ WP321996 14.6225 148.100 15 -1 10 282
1996282N11162 1996 94 WP MM ABEL:BETH 1996-10-10 12:00:00 NR 14.7000 147.600 main 1882 1882 O_____________ jtwc_wp WP321996 14.7000 147.600 15 -1 9 279
1996282N11162 1996 94 WP MM ABEL:BETH 1996-10-10 15:00:00 NR 14.7648 147.150 main 1893 1893 P_____________ WP321996 14.7648 147.150 15 -1 9 277
1996282N11162 1996 94 WP MM ABEL:BETH 1996-10-10 18:00:00 NR 14.8000 146.700 main 1893 1893 O_____________ jtwc_wp WP321996 14.8000 146.700 15 -1 9 273
1996282N11162 1996 94 WP MM ABEL:BETH 1996-10-10 21:00:00 NR 14.8149 146.215 main 1893 1893 P_____________ WP321996 14.8149 146.215 17 -1 10 270
1996282N11162 1996 94 WP MM ABEL:BETH 1996-10-11 00:00:00 NR 14.8000 145.700 main 1895 1895 O_____________ jtwc_wp WP321996 14.8000 145.700 20 -1 10 268
1996282N11162 1996 94 WP MM ABEL:BETH 1996-10-11 03:00:00 NR 14.7876 145.135 main 1900 1892 P_____________ WP321996 14.7876 145.135 20 -1 11 265
1996282N11162 1996 94 WP MM ABEL:BETH 1996-10-11 06:00:00 NR 14.7000 144.600 main 1894 1876 O_____________ jtwc_wp WP321996 14.7000 144.600 20 -1 10 250
1996282N11162 1996 94 WP MM ABEL:BETH 1996-10-11 09:00:00 NR 14.4572 144.200 main 1878 1856 P_____________ WP321996 14.4572 144.200 22 -1 6 223
1996282N11162 1996 94 WP MM ABEL:BETH 1996-10-11 12:00:00 TS 14.2800 144.200 1008 tokyo main 1856 1846 OO____________ jtwc_wp WP321996 14.2000 143.800 25 -1 14.6000 145.800 2 1008 0 0 0 6 244
1996282N11162 1996 94 WP MM ABEL:BETH 1996-10-11 15:00:00 TS 14.1793 143.606 main 1855 1833 PP____________ WP321996 14.0625 143.273 25 -1 14.4130 144.274 2 1008 0 0 13 264
1996282N11162 1996 94 WP MM ABEL:BETH 1996-10-11 18:00:00 TS 14.1286 142.829 1008 tokyo main 1830 1807 OO____________ jtwc_wp WP321996 14.0000 142.700 25 -1 14.3000 143.000 2 1008 0 0 0 14 268
1996282N11162 1996 94 WP MM ABEL:BETH 1996-10-11 21:00:00 TS 14.1379 142.145 main 1803 1741 PP____________ WP321996 13.9698 142.165 25 -1 14.3059 142.126 2 1008 0 0 13 271
1996282N11162 1996 94 WP MM ABEL:BETH 1996-10-12 00:00:00 TS 14.1500 141.500 1008 tokyo main 1741 1665 OO____________ jtwc_wp WP321996 14.0000 141.600 25 -1 14.3000 141.400 2 1008 0 0 0 14 268
1996282N11162 1996 94 WP MM ABEL:BETH 1996-10-12 03:00:00 TS 14.0814 140.713 main 1654 1578 PP____________ WP321996 14.0701 140.950 25 -1 14.0927 140.477 2 1008 0 0 15 266
1996282N11162 1996 94 WP MM ABEL:BETH 1996-10-12 06:00:00 TS 14.0500 139.950 1008 tokyo main 1580 1506 OO____________ jtwc_wp WP321996 14.2000 140.300 25 -1 13.9000 139.600 2 1008 0 0 0 14 273
1996282N11162 1996 94 WP MM ABEL:BETH 1996-10-12 09:00:00 TS 14.1484 139.316 main 1506 1458 PP____________ WP321996 14.3848 139.735 25 -1 13.9121 138.898 2 1008 0 0 12 282
1996282N11162 1996 94 WP MM ABEL:BETH 1996-10-12 12:00:00 TS 14.3000 138.750 1008 tokyo main 1458 1396 OO____________ jtwc_wp WP321996 14.6000 139.200 25 -1 14.0000 138.300 2 1008 0 0 0 11 282
1996282N11162 1996 94 WP MM ABEL:BETH 1996-10-12 15:00:00 TS 14.3872 138.203 main 1396 1345 PP____________ WP321996 14.7996 138.687 25 -1 13.9749 137.720 2 1008 0 0 11 283
1996282N11162 1996 94 WP MM ABEL:BETH 1996-10-12 18:00:00 TS 14.5500 137.650 1008 tokyo main 1347 1290 OO____________ jtwc_wp WP321996 15.0000 138.100 25 -1 14.1000 137.200 2 1008 0 0 0 12 295
1996282N11162 1996 94 WP MM ABEL:BETH 1996-10-12 21:00:00 TS 14.9173 137.055 main 1290 1227 PP____________ WP321996 15.2225 137.345 25 -1 14.6121 136.765 2 1008 0 0 14 302
1996282N11162 1996 94 WP MM ABEL:BETH 1996-10-13 00:00:00 TS 15.3000 136.400 1008 tokyo main 1227 1161 OO____________ jtwc_wp WP321996 15.4000 136.500 25 -1 15.2000 136.300 2 1008 0 0 0 15 294
1996282N11162 1996 94 WP MM ABEL:BETH 1996-10-13 03:00:00 TS 15.5277 135.631 main 1151 1083 PP____________ WP321996 15.4728 135.605 25 -1 15.5827 135.658 2 1006 0 0 15 284
1996282N11162 1996 94 WP MM ABEL:BETH 1996-10-13 06:00:00 TS 15.6500 134.900 1004 tokyo main 1087 1037 OO____________ jtwc_wp WP321996 15.5000 134.800 25 -1 15.8000 135.000 2 1004 0 0 0 12 278
1996282N11162 1996 94 WP MM ABEL:BETH 1996-10-13 09:00:00 TS 15.7009 134.355 main 1037 987 PP____________ WP321996 15.5495 134.232 25 -1 15.8522 134.477 2 1004 0 0 10 272
1996282N11162 1996 94 WP MM ABEL:BETH 1996-10-13 12:00:00 TS 15.6778 133.911 1004 tokyo main 987 948 OOO___________ jtwc_wp WP321996 15.6000 133.800 25 -1 15.8000 134.000 2 1004 0 0 0 15.5000 134.000 1 23 1004 9 268
1996282N11162 1996 94 WP MM ABEL:BETH 1996-10-13 15:00:00 TS 15.6699 133.470 main 948 909 PPP___________ WP321996 15.6423 133.385 27 -1 15.7498 133.507 2 1005 0 0 15.5651 133.565 1 23 1004 9 270
1996282N11162 1996 94 WP MM ABEL:BETH 1996-10-13 18:00:00 TS 15.6727 133.027 1006 tokyo main 899 860 OOO___________ jtwc_wp WP321996 15.7000 133.000 30 -1 15.7000 133.000 2 1006 0 0 0 15.6000 133.100 1 23 1004 9 271
1996282N11162 1996 94 WP MM ABEL:BETH 1996-10-13 21:00:00 TS 15.6875 132.542 main 851 813 PPP___________ WP321996 15.8000 132.585 30 -1 15.6700 132.450 2 1006 0 0 15.5925 132.592 1 26 1003 9 274
1996282N11162 1996 94 WP MM ABEL:BETH 1996-10-14 00:00:00 TS 15.7333 132.067 1006 tokyo main 813 781 OOO___________ jtwc_wp WP321996 15.9000 132.200 30 -1 15.7000 131.900 2 1006 0 0 0 15.6000 132.100 1 29 1002 9 278
1996282N11162 1996 94 WP MM ABEL:BETH 1996-10-14 03:00:00 TS 15.8082 131.644 main 771 750 PPP___________ WP321996 15.9349 131.877 30 -1 15.8200 131.370 2 1005 0 0 15.6698 131.685 1 29 1002 8 285
1996282N11162 1996 94 WP MM ABEL:BETH 1996-10-14 06:00:00 TS 15.9333 131.267 1004 tokyo main 750 727 OOO___________ jtwc_wp WP321996 16.0000 131.600 30 -1 16.0000 130.900 2 1004 0 0 0 15.8000 131.300 1 29 1002 8 293
1996282N11162 1996 94 WP MM ABEL:BETH 1996-10-14 09:00:00 TS 16.1108 130.896 main 727 716 PPP___________ WP321996 16.1624 131.357 32 -1 16.1925 130.475 2 1004 0 0 15.9776 130.855 1 29 1002 8 302
1996282N11162 1996 94 WP MM ABEL:BETH 1996-10-14 12:00:00 TS 16.3333 130.600 1004 tokyo main 716 706 OOO___________ jtwc_wp WP321996 16.4000 131.100 35 0 16.4000 130.200 2 1004 0 0 0 16.2000 130.500 1 29 1002 7 316
1996282N11162 1996 94 WP MM ABEL:BETH 1996-10-14 15:00:00 TS 16.5908 130.412 main 711 706 PPP___________ WP321996 16.7076 130.743 37 0 16.6149 130.147 2 1004 0 0 16.4499 130.347 1 29 1001 6 330
1996282N11162 1996 94 WP MM ABEL:BETH 1996-10-14 18:00:00 TS 16.8333 130.300 1004 tokyo main 711 711 OOO___________ jtwc_wp WP321996 17.0000 130.400 40 0 16.8000 130.200 2 1004 0 0 0 16.7000 130.300 1 29 1000 4 337
1996282N11162 1996 94 WP MM ABEL:BETH 1996-10-14 21:00:00 TS 16.9957 130.237 main 712 708 PPP___________ WP321996 17.1799 130.185 42 0 16.8775 130.230 2 1004 0 0 16.9299 130.295 1 29 999 3 333
1996282N11162 1996 94 WP MM ABEL:BETH 1996-10-15 00:00:00 TS 17.1333 130.133 1004 tokyo main 708 701 OOO___________ jtwc_wp WP321996 17.3000 130.000 45 0 17.0000 130.200 2 1004 0 0 0 17.1000 130.200 1 29 998 5 314
1996282N11162 1996 94 WP MM ABEL:BETH 1996-10-15 03:00:00 TS 17.3125 129.888 main 701 680 PPP___________ WP321996 17.4150 129.757 45 0 17.3499 130.068 2 1004 0 0 17.1727 129.837 1 29 998 6 302
1996282N11162 1996 94 WP MM ABEL:BETH 1996-10-15 06:00:00 TS 17.4667 129.567 1004 tokyo main 687 661 OOO___________ jtwc_wp WP321996 17.5000 129.500 45 0 17.7000 129.800 2 1004 0 0 0 17.2000 129.400 1 29 998 7 292
1996282N11162 1996 94 WP MM ABEL:BETH 1996-10-15 09:00:00 TS 17.5583 129.246 main 659 635 PPP___________ WP321996 17.5649 129.272 45 0 17.8601 129.388 2 1004 0 0 17.2499 129.077 1 29 998 6 281
1996282N11162 1996 94 WP MM ABEL:BETH 1996-10-15 12:00:00 TS 17.5923 128.915 1004 tokyo main 635 611 OOOO__________ jtwc_wp WP321996 17.6000 129.000 45 0 17.9000 128.900 2 1004 0 0 0 17.3000 128.800 1 29 998 17.5000 129.100 TD 30 1000 6 274
1996282N11162 1996 94 WP MM ABEL:BETH 1996-10-15 15:00:00 TS 17.6028 128.570 main 611 580 PPPP__________ WP321996 17.6075 128.622 47 0 17.8725 128.435 2 1004 0 0 17.3499 128.557 1 29 998 17.5601 128.760 TD 30 1000 7 271
1996282N11162 1996 94 WP MM ABEL:BETH 1996-10-15 18:00:00 TS 17.6000 128.213 1004 tokyo main 580 557 OOOO__________ jtwc_wp WP321996 17.6000 128.200 50 0 17.8000 128.000 2 1004 0 0 0 17.4000 128.300 1 29 998 17.6000 128.400 TD 30 1000 7 270
1996282N11162 1996 94 WP MM ABEL:BETH 1996-10-15 21:00:00 TS 17.5999 127.852 main 557 528 PPPP__________ WP321996 17.5999 127.800 52 0 17.7424 127.628 2 1000 0 0 17.4500 127.972 1 31 996 17.6075 128.007 TD 32 999 7 270
1996282N11162 1996 94 WP MM ABEL:BETH 1996-10-16 00:00:00 TS 17.6000 127.475 35 996 tokyo main 528 493 OOOO__________ jtwc_wp WP321996 17.6000 127.400 55 0 17.7000 127.300 3 35 996 0 9 90 90 0 17.5000 127.600 2 34 995 17.6000 127.600 TS 35 998 7 271
1996282N11162 1996 94 WP MM ABEL:BETH 1996-10-16 03:00:00 TS 17.6180 127.102 main 493 451 PPPP__________ WP321996 17.6000 126.993 57 0 17.6998 127.008 3 37 995 0 9 105 105 17.5725 127.208 2 34 995 17.5999 127.200 TS 37 996 7 272
1996282N11162 1996 94 WP MM ABEL:BETH 1996-10-16 06:00:00 TS 17.6250 126.725 40 994 tokyo main 451 419 OOOO__________ jtwc_wp WP321996 17.6000 126.600 60 0 17.7000 126.700 3 40 994 0 9 120 120 0 17.6000 126.800 2 34 995 17.6000 126.800 TS 40 994 7 268
1996282N11162 1996 94 WP MM ABEL:BETH 1996-10-16 09:00:00 TS 17.5874 126.347 main 409 377 PPPP__________ WP321996 17.5999 126.250 62 0 17.6500 126.322 3 45 989 0 9 120 120 17.4999 126.407 2 36 993 17.5999 126.408 TS 42 992 7 264
1996282N11162 1996 94 WP MM ABEL:BETH 1996-10-16 12:00:00 TS 17.5500 125.950 50 985 tokyo main 377 325 OOOO__________ jtwc_wp WP321996 17.6000 125.900 65 1 17.6000 125.900 4 50 985 0 9 120 120 0 17.4000 126.000 2 38 992 17.6000 126.000 TS 45 990 8 268
1996282N11162 1996 94 WP MM ABEL:BETH 1996-10-16 15:00:00 TS 17.5549 125.524 main 325 284 PPPP__________ WP321996 17.5923 125.530 67 1 17.6000 125.450 4 50 985 0 9 120 120 17.4274 125.558 2 41 991 17.5999 125.558 TS 47 987 8 272
1996282N11162 1996 94 WP MM ABEL:BETH 1996-10-16 18:00:00 TS 17.5750 125.075 50 985 tokyo main 284 232 OOOO__________ jtwc_wp WP321996 17.6000 125.100 70 1 17.6000 125.000 4 50 985 0 9 120 120 0 17.5000 125.100 2 44 990 17.6000 125.100 STS 50 985 9 272
1996282N11162 1996 94 WP MM ABEL:BETH 1996-10-16 21:00:00 TS 17.5875 124.611 main 232 192 PPPP__________ WP321996 17.6503 124.535 72 1 17.5498 124.600 4 52 982 0 9 120 120 17.5498 124.657 2 46 987 17.5999 124.650 STS 52 982 9 272
1996282N11162 1996 94 WP MM ABEL:BETH 1996-10-17 00:00:00 TS 17.6000 124.150 55 980 tokyo main 192 141 OOOO__________ jtwc_wp WP321996 17.7000 124.000 75 1 17.5000 124.200 4 55 980 9 40 40 9 120 120 0 17.6000 124.200 3 48 985 17.6000 124.200 STS 55 980 9 272
1996282N11162 1996 94 WP MM ABEL:BETH 1996-10-17 03:00:00 TS 17.6106 123.702 main 141 101 PPPP__________ WP321996 17.7072 123.662 77 1 17.4776 123.735 4 57 977 9 45 45 9 120 120 17.6576 123.678 3 53 982 17.6000 123.735 STS 57 977 8 272
1996282N11162 1996 94 WP MM ABEL:BETH 1996-10-17 06:00:00 TS 17.6250 123.300 60 975 tokyo main 101 71 OOOO__________ jtwc_wp WP321996 17.7000 123.400 80 1 17.5000 123.300 4 60 975 9 50 50 9 120 120 0 17.7000 123.200 3 58 980 17.6000 123.300 STS 60 975 7 273
1996282N11162 1996 94 WP MM ABEL:BETH 1996-10-17 09:00:00 TS 17.6498 122.974 main 71 54 PPPP__________ WP321996 17.7074 123.108 85 2 17.5923 122.985 4 60 975 9 50 50 9 120 120 17.7073 122.870 3 58 980 17.5924 122.935 STS 62 972 6 275
1996282N11162 1996 94 WP MM ABEL:BETH 1996-10-17 12:00:00 TS 17.6750 122.675 60 975 tokyo main 54 31 OOOO__________ jtwc_wp WP321996 17.7000 122.800 90 2 17.7000 122.700 4 60 975 9 50 50 9 120 120 0 17.7000 122.600 3 58 980 17.6000 122.600 T 65 970 6 273
1996282N11162 1996 94 WP MM ABEL:BETH 1996-10-17 15:00:00 TS 17.6762 122.349 main 21 0 PPPP__________ WP321996 17.6350 122.457 90 2 17.7499 122.365 4 60 975 9 50 50 9 120 120 17.6773 122.322 3 58 980 17.6424 122.250 T 65 970 6 272
1996282N11162 1996 94 WP MM ABEL:BETH 1996-10-17 18:00:00 TS 17.7000 122.000 60 975 tokyo main 0 0 OOOO__________ jtwc_wp WP321996 17.6000 122.100 90 2 17.8000 122.000 4 60 975 9 50 50 9 120 120 0 17.7000 122.000 3 58 980 17.7000 121.900 T 65 970 7 278
1996282N11162 1996 94 WP MM ABEL:BETH 1996-10-17 21:00:00 TS 17.7813 121.611 main 0 0 PPPP__________ WP321996 17.6624 121.765 82 1 17.8850 121.592 4 57 977 9 45 45 9 120 120 17.8352 121.543 3 58 980 17.7425 121.542 T 65 970 8 285
1996282N11162 1996 94 WP MM ABEL:BETH 1996-10-18 00:00:00 TS 17.9000 121.225 55 980 tokyo main 0 0 OOOO__________ jtwc_wp WP321996 17.8000 121.400 75 1 18.0000 121.200 4 55 980 9 40 40 9 120 120 0 18.0000 121.100 3 58 980 17.8000 121.200 T 65 970 7 290
1996282N11162 1996 94 WP MM ABEL:BETH 1996-10-18 03:00:00 TS 18.0374 120.883 main 0 0 PPPP__________ WP321996 18.0002 120.920 75 1 18.1498 120.892 4 55 980 9 40 40 9 120 120 18.1148 120.827 3 58 980 17.8849 120.892 T 65 970 7 294
1996282N11162 1996 94 WP MM ABEL:BETH 1996-10-18 06:00:00 TS 18.1750 120.575 55 980 tokyo main 0 0 OOOO__________ jtwc_wp WP321996 18.2000 120.500 75 1 18.3000 120.600 4 55 980 9 40 40 9 120 120 0 18.2000 120.600 3 58 980 18.0000 120.600 T 65 970 6 293
1996282N11162 1996 94 WP MM ABEL:BETH 1996-10-18 09:00:00 TS 18.2749 120.304 main 30 30 PPPP__________ WP321996 18.2996 120.350 77 1 18.4074 120.265 4 55 980 9 40 40 9 120 120 18.2425 120.300 3 61 977 18.1500 120.300 T 65 970 6 291
1996282N11162 1996 94 WP MM ABEL:BETH 1996-10-18 12:00:00 TS 18.3750 120.025 55 980 tokyo main 62 62 OOOO__________ jtwc_wp WP321996 18.4000 120.200 80 1 18.5000 119.900 4 55 980 9 40 40 9 120 120 0 18.3000 120.000 4 64 975 18.3000 120.000 T 65 970 6 293
1996282N11162 1996 94 WP MM ABEL:BETH 1996-10-18 15:00:00 TS 18.5180 119.707 main 95 95 PPPP__________ WP321996 18.6076 119.803 80 1 18.6150 119.508 4 55 980 9 40 40 9 120 120 18.4421 119.802 4 61 977 18.4074 119.715 T 65 970 7 293
1996282N11162 1996 94 WP MM ABEL:BETH 1996-10-18 18:00:00 TS 18.6500 119.325 55 980 tokyo main 141 138 OOOO__________ jtwc_wp WP321996 18.8000 119.300 80 1 18.7000 119.100 4 55 980 9 40 40 9 120 120 0 18.6000 119.500 3 58 980 18.5000 119.400 T 65 970 8 285
1996282N11162 1996 94 WP MM ABEL:BETH 1996-10-18 21:00:00 TS 18.7333 118.845 main 191 191 PPPP__________ WP321996 18.8800 118.800 80 1 18.7224 118.700 4 55 980 9 40 40 9 120 120 18.7157 118.865 3 58 980 18.6150 119.015 T 62 972 9 278
1996282N11162 1996 94 WP MM ABEL:BETH 1996-10-19 00:00:00 TS 18.7750 118.350 55 980 tokyo main 234 234 OOOO__________ jtwc_wp WP321996 18.9000 118.300 80 1 18.7000 118.300 4 55 980 9 40 40 9 120 120 0 18.8000 118.200 3 58 980 18.7000 118.600 STS 60 975 9 274
1996282N11162 1996 94 WP MM ABEL:BETH 1996-10-19 03:00:00 TS 18.7936 117.939 main 285 285 PPPP__________ WP321996 18.9224 117.835 80 1 18.6724 117.900 4 55 980 9 40 40 9 120 120 18.8570 117.820 3 58 980 18.7224 118.200 STS 60 975 8 270
1996282N11162 1996 94 WP MM ABEL:BETH 1996-10-19 06:00:00 TS 18.7750 117.550 55 980 tokyo main 315 315 OOOO__________ jtwc_wp WP321996 18.9000 117.400 80 1 18.6000 117.500 4 55 980 9 40 40 9 120 120 0 18.9000 117.500 3 58 980 18.7000 117.800 STS 60 975 8 266
1996282N11162 1996 94 WP MM ABEL:BETH 1996-10-19 09:00:00 TS 18.7405 117.143 main 359 359 PPPP__________ WP321996 18.8223 117.008 77 1 18.4798 117.115 4 55 980 9 40 40 9 120 120 18.9801 117.050 3 53 982 18.6799 117.400 STS 57 977 8 261
1996282N11162 1996 94 WP MM ABEL:BETH 1996-10-19 12:00:00 TS 18.6500 116.725 55 980 tokyo main 399 396 OOOO__________ jtwc_wp WP321996 18.7000 116.600 75 1 18.3000 116.700 4 55 980 9 40 40 9 120 120 0 19.0000 116.600 3 48 985 18.6000 117.000 STS 55 980 8 253
1996282N11162 1996 94 WP MM ABEL:BETH 1996-10-19 15:00:00 TS 18.4999 116.295 main 434 434 PPPP__________ WP321996 18.5951 116.100 70 1 18.0575 116.207 4 52 982 9 9 120 120 18.9246 116.273 3 46 987 18.4224 116.600 STS 52 982 9 246
1996282N11162 1996 94 WP MM ABEL:BETH 1996-10-19 18:00:00 TS 18.2750 115.850 50 985 tokyo main 470 470 OOOO__________ jtwc_wp WP321996 18.4000 115.600 65 1 17.8000 115.700 4 50 985 0 9 120 120 0 18.7000 115.900 2 44 990 18.2000 116.200 STS 50 985 10 238
1996282N11162 1996 94 WP MM ABEL:BETH 1996-10-19 21:00:00 TS 17.9699 115.399 main 494 471 PPPP__________ WP321996 18.0147 115.207 60 0 17.5848 115.250 4 47 987 0 9 120 120 18.2727 115.329 2 39 992 18.0074 115.808 STS 47 987 11 235
1996282N11162 1996 94 WP MM ABEL:BETH 1996-10-20 00:00:00 TS 17.6500 114.925 45 990 tokyo main 462 434 OOOO__________ jtwc_wp WP321996 17.6000 114.800 55 0 17.4000 114.800 3 45 990 0 9 120 120 0 17.8000 114.700 2 34 995 17.8000 115.400 TS 45 990 11 238
1996282N11162 1996 94 WP MM ABEL:BETH 1996-10-20 03:00:00 TS 17.3844 114.405 main 434 401 PPPP__________ WP321996 17.3050 114.273 52 0 17.2351 114.278 3 45 990 0 9 160 160 17.4475 114.105 2 34 996 17.5499 114.965 TS 42 992 11 244
1996282N11162 1996 94 WP MM ABEL:BETH 1996-10-20 06:00:00 TS 17.1750 113.900 45 990 tokyo main 401 370 OOOO__________ jtwc_wp WP321996 17.1000 113.700 50 0 17.1000 113.800 3 45 990 0 9 200 200 0 17.2000 113.600 2 34 998 17.3000 114.500 TS 40 994 10 249
1996282N11162 1996 94 WP MM ABEL:BETH 1996-10-20 09:00:00 TS 17.0404 113.478 main 375 340 PPPP__________ WP321996 16.9924 113.150 47 0 17.0222 113.493 3 42 993 0 9 175 175 17.0622 113.263 2 34 998 17.0849 114.008 TS 37 996 9 253
1996282N11162 1996 94 WP MM ABEL:BETH 1996-10-20 12:00:00 TS 16.9267 113.047 40 996 tokyo main 339 315 OOOO__________ jtwc_wp WP321996 16.9000 112.600 45 0 16.9000 113.200 3 40 996 0 9 150 150 0 17.0000 113.000 2 34 998 16.9000 113.500 TS 35 998 9 252
1996282N11162 1996 94 WP MM ABEL:BETH 1996-10-20 15:00:00 TS 16.7640 112.567 main 315 296 PPPP__________ WP321996 16.7149 112.042 42 0 16.6451 112.757 3 40 996 0 9 150 150 16.9425 112.685 2 34 998 16.7427 112.997 TS 32 999 10 248
1996282N11162 1996 94 WP MM ABEL:BETH 1996-10-20 18:00:00 TS 16.5692 112.100 40 996 tokyo main 296 287 OOOO__________ jtwc_wp WP321996 16.5000 111.500 40 0 16.3000 112.300 3 40 996 0 9 150 150 0 16.9000 112.400 2 34 998 16.6000 112.500 TD 30 1000 9 244
1996282N11162 1996 94 WP MM ABEL:BETH 1996-10-20 21:00:00 TS 16.3598 111.719 main 287 286 PPP___________ WP321996 16.2925 110.970 37 0 15.8998 111.943 3 998 0 9 16.8871 112.245 2 31 999 TD 8 238
1996282N11162 1996 94 WP MM ABEL:BETH 1996-10-21 00:00:00 TS 16.1333 111.367 1000 tokyo main 286 228 OOO___________ jtwc_wp WP321996 16.1000 110.500 35 0 15.5000 111.600 2 1000 0 0 0 16.8000 112.000 1 29 1000 9 239
1996282N11162 1996 94 WP MM ABEL:BETH 1996-10-21 03:00:00 TS 15.8934 110.912 main 228 177 PPP___________ WP321996 15.9648 110.120 32 -1 15.1926 111.170 2 1001 0 0 16.5228 111.445 1 26 1001 11 238
1996282N11162 1996 94 WP MM ABEL:BETH 1996-10-21 06:00:00 TS 15.5818 110.436 1002 tokyo main 166 121 OOO___________ jtwc_wp WP321996 15.8000 109.800 30 -1 14.9000 110.800 2 1002 0 0 0 16.2000 110.800 1 23 1002 10 230
1996282N11162 1996 94 WP MM ABEL:BETH 1996-10-21 09:00:00 TS 15.2284 110.085 main 121 86 PPP___________ WP321996 15.5300 109.470 30 -1 14.5574 110.613 2 1003 0 0 15.9674 110.260 1 21 1003 10 217
1996282N11162 1996 94 WP MM ABEL:BETH 1996-10-21 12:00:00 TS 14.8222 109.844 1004 tokyo main 76 63 OOO___________ jtwc_wp WP321996 15.2000 109.200 30 -1 14.2000 110.500 2 1004 0 0 0 15.8000 109.800 0 19 1004 10 204
1996282N11162 1996 94 WP MM ABEL:BETH 1996-10-21 15:00:00 TS 14.3500 109.674 main 58 31 PP____________ WP321996 14.8499 109.020 30 -1 13.8500 110.327 2 1004 0 0 0 8 207
1996282N11162 1996 94 WP MM ABEL:BETH 1996-10-21 18:00:00 TS 14.0714 109.457 1004 tokyo main 31 0 OO____________ jtwc_wp WP321996 14.5000 108.900 30 -1 13.5000 110.200 2 1004 0 0 0 7 220
1996282N11162 1996 94 WP MM ABEL:BETH 1996-10-21 21:00:00 TS 13.8400 109.227 main 0 0 PP____________ WP321996 14.1850 108.755 30 -1 13.1500 110.170 2 1004 0 0 6 229
1996282N11162 1996 94 WP MM ABEL:BETH 1996-10-22 00:00:00 TS 13.6800 109.000 1004 tokyo main 0 0 OO____________ jtwc_wp WP321996 13.9000 108.700 30 -1 12.8000 110.200 2 1004 0 0 0 5 244
1996282N11162 1996 94 WP MM ABEL:BETH 1996-10-22 03:00:00 NR 13.6274 108.783 main 0 0 P_____________ WP321996 13.6274 108.783 27 -1 2 0 0 3 0
1996282N11162 1996 94 WP MM ABEL:BETH 1996-10-22 06:00:00 NR 13.4000 109.000 main 0 0 O_____________ jtwc_wp WP321996 13.4000 109.000 25 -1 7 126
1996282N11162 1996 94 WP MM ABEL:BETH 1996-10-22 09:00:00 NR 13.2351 109.327 main 0 0 P_____________ WP321996 13.2351 109.327 22 -1 7 114
1996282N11162 1996 94 WP MM ABEL:BETH 1996-10-22 12:00:00 NR 13.1000 109.700 main 31 31 O_____________ jtwc_wp WP321996 13.1000 109.700 20 -1 7 113
1996282N11162 1996 94 WP MM ABEL:BETH 1996-10-22 15:00:00 NR 12.9550 110.020 main 55 54 P_____________ WP321996 12.9550 110.020 17 -1 7 117
1996282N11162 1996 94 WP MM ABEL:BETH 1996-10-22 18:00:00 NR 12.8000 110.300 main 87 O_____________ jtwc_wp WP321996 12.8000 110.300 15 -1 6 120

デジタル台風データ・検索

IBTrACS Databaseについて

本データベースは、米国NOAAが公開する1842年以降の世界の熱帯低気圧のベストトラックデータアーカイブInternational Best Track Archive for Climate Stewardship (IBTrACS)を、ウェブで閲覧しやすい形式に変換したものです。

最終更新日:2021-10-08